Etusivu
METAR-TAF:

METAR-TAF

Lentoasemat :

Sky Harbor Airport

Duluth, Minnesota, Yhdysvallat

Leveyspiiri: 46-43-19N, Pituuspiiri: 092-02-36W, korkeus merenpinnasta: 186 m

Tämänhetkinen sää

Tämä raportti tehtiin 15 minuuttia sitten, kello 10.55 UTC
Tuuli 3 kn idästä
Lämpötila 14°C
Kosteus 77%
Ilmanpaine 1026 hPa
Näkyvyys: 16.1 km
Pilvistä 5500 ft:n korkeudessa

METAR: KDYT 241055Z AUTO 08003KT 10SM OVC055 14/10 A3029 RMK AO2

Aika: 06:10 (11:10 UTC)


TAF: puuttuu

Säähavainnot ja -ennusteet yli 4000 lentoasemalta (METAR- ja TAF-raportit).

Käytössä olevat sääasemat on merkitty karttaan keltaisilla ja punaisilla pisteillä.

Aseta hiiri pisteen päälle nähdäksesi sääaseman nimen.

Klikkaa sitten nähdäksesi säähavainnot ja -ennusteet.

Kartan vaihtaminen: klikkaa mustalla rastilla varustettuja vihreitä pisteitä, niin voit zoomata sisään; viivalla varustettua vihreää pistettä, niin voit zoomata ulos tai vihreitä nuolia, niin pääset viereisille kartoille.


METAR-TAF: